sensor_id;sensor_type;location;lat;lon;timestamp;pressure;altitude;pressure_sealevel;temperature;humidity
48015;BME280;33780;51.034;7.120;2023-06-10T00:02:14;100552.28;;;21.52;54.28
48015;BME280;33780;51.034;7.120;2023-06-10T00:04:42;100560.66;;;21.50;54.24
48015;BME280;33780;51.034;7.120;2023-06-10T00:07:08;100560.03;;;21.48;54.22
48015;BME280;33780;51.034;7.120;2023-06-10T00:09:36;100557.72;;;21.45;54.37
48015;BME280;33780;51.034;7.120;2023-06-10T00:12:05;100551.84;;;21.41;54.43
48015;BME280;33780;51.034;7.120;2023-06-10T00:14:32;100551.44;;;21.38;54.83
48015;BME280;33780;51.034;7.120;2023-06-10T00:16:57;100551.81;;;21.35;54.58
48015;BME280;33780;51.034;7.120;2023-06-10T00:19:24;100551.59;;;21.30;54.74
48015;BME280;33780;51.034;7.120;2023-06-10T00:21:55;100553.91;;;21.26;54.72
48015;BME280;33780;51.034;7.120;2023-06-10T00:24:20;100547.16;;;21.22;54.75
48015;BME280;33780;51.034;7.120;2023-06-10T00:26:45;100559.31;;;21.20;55.16
48015;BME280;33780;51.034;7.120;2023-06-10T00:29:11;100554.03;;;21.18;54.94
48015;BME280;33780;51.034;7.120;2023-06-10T00:31:37;100547.34;;;21.14;54.93
48015;BME280;33780;51.034;7.120;2023-06-10T00:34:03;100550.69;;;21.09;55.34
48015;BME280;33780;51.034;7.120;2023-06-10T00:36:29;100551.94;;;21.07;55.05
48015;BME280;33780;51.034;7.120;2023-06-10T00:38:54;100556.13;;;21.03;55.11
48015;BME280;33780;51.034;7.120;2023-06-10T00:41:20;100551.88;;;21.00;55.32
48015;BME280;33780;51.034;7.120;2023-06-10T00:43:45;100554.81;;;20.99;55.54
48015;BME280;33780;51.034;7.120;2023-06-10T00:46:11;100557.94;;;20.96;55.64
48015;BME280;33780;51.034;7.120;2023-06-10T00:48:38;100560.03;;;20.94;55.63
48015;BME280;33780;51.034;7.120;2023-06-10T00:51:05;100556.91;;;20.90;55.61
48015;BME280;33780;51.034;7.120;2023-06-10T00:53:30;100559.19;;;20.87;55.18
48015;BME280;33780;51.034;7.120;2023-06-10T00:55:56;100562.09;;;20.85;55.68
48015;BME280;33780;51.034;7.120;2023-06-10T00:58:23;100556.41;;;20.80;55.59
48015;BME280;33780;51.034;7.120;2023-06-10T01:00:49;100558.72;;;20.76;55.74
48015;BME280;33780;51.034;7.120;2023-06-10T01:03:15;100561.00;;;20.73;55.69
48015;BME280;33780;51.034;7.120;2023-06-10T01:05:42;100556.81;;;20.70;56.04
48015;BME280;33780;51.034;7.120;2023-06-10T01:08:32;100559.94;;;20.67;56.17
48015;BME280;33780;51.034;7.120;2023-06-10T01:11:00;100553.19;;;20.63;55.96
48015;BME280;33780;51.034;7.120;2023-06-10T01:13:28;100557.16;;;20.61;55.96
48015;BME280;33780;51.034;7.120;2023-06-10T01:15:55;100553.81;;;20.59;56.27
48015;BME280;33780;51.034;7.120;2023-06-10T01:18:21;100555.06;;;20.56;56.15
48015;BME280;33780;51.034;7.120;2023-06-10T01:20:47;100550.44;;;20.50;56.56
48015;BME280;33780;51.034;7.120;2023-06-10T01:23:14;100552.69;;;20.46;56.42
48015;BME280;33780;51.034;7.120;2023-06-10T01:25:49;100554.97;;;20.43;56.34
48015;BME280;33780;51.034;7.120;2023-06-10T01:28:24;100558.06;;;20.40;56.72
48015;BME280;33780;51.034;7.120;2023-06-10T01:31:07;100554.91;;;20.36;56.33
48015;BME280;33780;51.034;7.120;2023-06-10T01:33:39;100559.72;;;20.34;56.52
48015;BME280;33780;51.034;7.120;2023-06-10T01:36:06;100554.66;;;20.31;56.69
48015;BME280;33780;51.034;7.120;2023-06-10T01:38:33;100557.75;;;20.28;56.89
48015;BME280;33780;51.034;7.120;2023-06-10T01:41:03;100556.09;;;20.27;56.70
48015;BME280;33780;51.034;7.120;2023-06-10T01:43:28;100558.38;;;20.23;56.95
48015;BME280;33780;51.034;7.120;2023-06-10T01:45:53;100557.53;;;20.23;57.16
48015;BME280;33780;51.034;7.120;2023-06-10T01:48:18;100553.53;;;20.19;57.04
48015;BME280;33780;51.034;7.120;2023-06-10T01:50:44;100554.78;;;20.16;57.04
48015;BME280;33780;51.034;7.120;2023-06-10T01:53:09;100556.84;;;20.14;57.21
48015;BME280;33780;51.034;7.120;2023-06-10T01:55:35;100552.66;;;20.12;57.02
48015;BME280;33780;51.034;7.120;2023-06-10T01:58:00;100560.13;;;20.10;57.27
48015;BME280;33780;51.034;7.120;2023-06-10T02:00:25;100556.78;;;20.08;57.00
48015;BME280;33780;51.034;7.120;2023-06-10T02:02:50;100558.03;;;20.05;57.38
48015;BME280;33780;51.034;7.120;2023-06-10T02:05:16;100561.97;;;20.03;57.31
48015;BME280;33780;51.034;7.120;2023-06-10T02:07:41;100561.34;;;20.01;57.37
48015;BME280;33780;51.034;7.120;2023-06-10T02:10:07;100563.81;;;19.96;57.88
48015;BME280;33780;51.034;7.120;2023-06-10T02:12:33;100564.38;;;19.91;57.59
48015;BME280;33780;51.034;7.120;2023-06-10T02:14:58;100567.28;;;19.89;57.46
48015;BME280;33780;51.034;7.120;2023-06-10T02:17:23;100566.00;;;19.85;57.66
48015;BME280;33780;51.034;7.120;2023-06-10T02:19:49;100567.25;;;19.83;57.70
48015;BME280;33780;51.034;7.120;2023-06-10T02:22:20;100573.72;;;19.82;57.63
48015;BME280;33780;51.034;7.120;2023-06-10T02:24:45;100580.38;;;19.79;57.54
48015;BME280;33780;51.034;7.120;2023-06-10T02:27:10;100569.91;;;19.76;57.73
48015;BME280;33780;51.034;7.120;2023-06-10T02:29:36;100579.66;;;19.71;57.91
48015;BME280;33780;51.034;7.120;2023-06-10T02:32:02;100571.06;;;19.67;58.01
48015;BME280;33780;51.034;7.120;2023-06-10T02:34:28;100583.16;;;19.65;58.23
48015;BME280;33780;51.034;7.120;2023-06-10T02:36:54;100575.41;;;19.61;58.23
48015;BME280;33780;51.034;7.120;2023-06-10T02:39:19;100577.69;;;19.58;58.36
48015;BME280;33780;51.034;7.120;2023-06-10T02:41:44;100579.72;;;19.56;58.16
48015;BME280;33780;51.034;7.120;2023-06-10T02:44:09;100579.44;;;19.51;58.51
48015;BME280;33780;51.034;7.120;2023-06-10T02:46:35;100583.19;;;19.50;58.51
48015;BME280;33780;51.034;7.120;2023-06-10T02:49:00;100580.03;;;19.46;58.40
48015;BME280;33780;51.034;7.120;2023-06-10T02:51:26;100584.81;;;19.44;58.55
48015;BME280;33780;51.034;7.120;2023-06-10T02:53:52;100583.34;;;19.42;58.75
48015;BME280;33780;51.034;7.120;2023-06-10T02:56:17;100578.09;;;19.40;58.46
48015;BME280;33780;51.034;7.120;2023-06-10T02:58:42;100578.47;;;19.37;58.72
48015;BME280;33780;51.034;7.120;2023-06-10T03:01:08;100588.66;;;19.35;58.65
48015;BME280;33780;51.034;7.120;2023-06-10T03:03:35;100580.72;;;19.33;58.74
48015;BME280;33780;51.034;7.120;2023-06-10T03:06:02;100580.06;;;19.31;58.81
48015;BME280;33780;51.034;7.120;2023-06-10T03:08:27;100582.34;;;19.28;58.86
48015;BME280;33780;51.034;7.120;2023-06-10T03:10:53;100584.41;;;19.26;58.69
48015;BME280;33780;51.034;7.120;2023-06-10T03:13:18;100583.13;;;19.22;58.84
48015;BME280;33780;51.034;7.120;2023-06-10T03:15:43;100580.94;;;19.17;58.97
48015;BME280;33780;51.034;7.120;2023-06-10T03:18:09;100590.31;;;19.15;59.10
48015;BME280;33780;51.034;7.120;2023-06-10T03:20:41;100585.09;;;19.13;59.58
48015;BME280;33780;51.034;7.120;2023-06-10T03:23:06;100581.53;;;19.13;59.79
48015;BME280;33780;51.034;7.120;2023-06-10T03:25:32;100584.44;;;19.11;59.00
48015;BME280;33780;51.034;7.120;2023-06-10T03:27:57;100586.31;;;19.11;59.29
48015;BME280;33780;51.034;7.120;2023-06-10T03:30:22;100586.50;;;19.09;59.26
48015;BME280;33780;51.034;7.120;2023-06-10T03:32:47;100589.41;;;19.08;59.30
48015;BME280;33780;51.034;7.120;2023-06-10T03:35:14;100595.88;;;19.07;59.17
48015;BME280;33780;51.034;7.120;2023-06-10T03:37:40;100594.53;;;19.02;59.19
48015;BME280;33780;51.034;7.120;2023-06-10T03:40:06;100594.72;;;19.01;59.35
48015;BME280;33780;51.034;7.120;2023-06-10T03:42:32;100594.94;;;18.99;59.29
48015;BME280;33780;51.034;7.120;2023-06-10T03:44:57;100595.13;;;18.98;59.29
48015;BME280;33780;51.034;7.120;2023-06-10T03:47:23;100595.13;;;18.98;59.34
48015;BME280;33780;51.034;7.120;2023-06-10T03:49:48;100605.13;;;18.97;59.27
48015;BME280;33780;51.034;7.120;2023-06-10T03:52:13;100593.63;;;18.95;59.09
48015;BME280;33780;51.034;7.120;2023-06-10T03:54:38;100604.28;;;18.97;59.17
48015;BME280;33780;51.034;7.120;2023-06-10T03:57:04;100603.25;;;18.98;59.49
48015;BME280;33780;51.034;7.120;2023-06-10T03:59:30;100595.97;;;18.98;59.47
48015;BME280;33780;51.034;7.120;2023-06-10T04:01:56;100598.03;;;18.96;59.32
48015;BME280;33780;51.034;7.120;2023-06-10T04:04:22;100600.09;;;18.94;59.04
48015;BME280;33780;51.034;7.120;2023-06-10T04:06:48;100598.59;;;18.92;59.42
48015;BME280;33780;51.034;7.120;2023-06-10T04:09:13;100606.94;;;18.90;59.42
48015;BME280;33780;51.034;7.120;2023-06-10T04:11:39;100592.91;;;18.87;59.44
48015;BME280;33780;51.034;7.120;2023-06-10T04:14:04;100604.78;;;18.86;59.84
48015;BME280;33780;51.034;7.120;2023-06-10T04:16:30;100607.66;;;18.84;59.52
48015;BME280;33780;51.034;7.120;2023-06-10T04:18:55;100610.38;;;18.84;59.68
48015;BME280;33780;51.034;7.120;2023-06-10T04:21:20;100609.72;;;18.82;59.90
48015;BME280;33780;51.034;7.120;2023-06-10T04:23:47;100614.09;;;18.83;59.67
48015;BME280;33780;51.034;7.120;2023-06-10T04:26:13;100612.44;;;18.82;59.96
48015;BME280;33780;51.034;7.120;2023-06-10T04:28:39;100621.41;;;18.83;59.66
48015;BME280;33780;51.034;7.120;2023-06-10T04:31:04;100611.59;;;18.82;60.24
48015;BME280;33780;51.034;7.120;2023-06-10T04:33:30;100622.44;;;18.82;60.27
48015;BME280;33780;51.034;7.120;2023-06-10T04:35:56;100625.16;;;18.82;60.34
48015;BME280;33780;51.034;7.120;2023-06-10T04:38:21;100625.97;;;18.82;60.39
48015;BME280;33780;51.034;7.120;2023-06-10T04:40:46;100625.97;;;18.82;60.44
48015;BME280;33780;51.034;7.120;2023-06-10T04:43:12;100617.84;;;18.82;60.37
48015;BME280;33780;51.034;7.120;2023-06-10T04:45:38;100619.34;;;18.85;60.38
48015;BME280;33780;51.034;7.120;2023-06-10T04:48:03;100618.34;;;18.86;60.37
48015;BME280;33780;51.034;7.120;2023-06-10T04:50:28;100617.13;;;18.88;60.48
48015;BME280;33780;51.034;7.120;2023-06-10T04:52:54;100614.22;;;18.90;60.55
48015;BME280;33780;51.034;7.120;2023-06-10T04:55:22;100621.13;;;18.92;60.45
48015;BME280;33780;51.034;7.120;2023-06-10T04:57:47;100622.44;;;18.96;60.49
48015;BME280;33780;51.034;7.120;2023-06-10T05:00:13;100632.25;;;18.97;60.34
48015;BME280;33780;51.034;7.120;2023-06-10T05:02:39;100633.94;;;18.98;60.33
48015;BME280;33780;51.034;7.120;2023-06-10T05:05:04;100623.91;;;18.99;60.71
48015;BME280;33780;51.034;7.120;2023-06-10T05:07:30;100628.13;;;19.01;60.61
48015;BME280;33780;51.034;7.120;2023-06-10T05:09:55;100626.94;;;19.04;60.84
48015;BME280;33780;51.034;7.120;2023-06-10T05:12:20;100628.59;;;19.05;60.81
48015;BME280;33780;51.034;7.120;2023-06-10T05:14:45;100626.53;;;19.07;60.96
48015;BME280;33780;51.034;7.120;2023-06-10T05:17:11;100630.75;;;19.10;60.76
48015;BME280;33780;51.034;7.120;2023-06-10T05:19:37;100634.09;;;19.12;60.99
48015;BME280;33780;51.034;7.120;2023-06-10T05:22:03;100628.50;;;19.13;61.17
48015;BME280;33780;51.034;7.120;2023-06-10T05:24:28;100629.97;;;19.16;61.31
48015;BME280;33780;51.034;7.120;2023-06-10T05:26:54;100630.44;;;19.19;61.60
48015;BME280;33780;51.034;7.120;2023-06-10T05:29:19;100630.91;;;19.23;61.32
48015;BME280;33780;51.034;7.120;2023-06-10T05:31:44;100632.22;;;19.27;61.36
48015;BME280;33780;51.034;7.120;2023-06-10T05:34:10;100635.38;;;19.30;61.13
48015;BME280;33780;51.034;7.120;2023-06-10T05:36:35;100631.25;;;19.35;61.43
48015;BME280;33780;51.034;7.120;2023-06-10T05:39:00;100637.97;;;19.39;61.15
48015;BME280;33780;51.034;7.120;2023-06-10T05:41:25;100640.31;;;19.42;61.55
48015;BME280;33780;51.034;7.120;2023-06-10T05:43:51;100631.78;;;19.45;61.66
48015;BME280;33780;51.034;7.120;2023-06-10T05:46:16;100632.25;;;19.48;61.37
48015;BME280;33780;51.034;7.120;2023-06-10T05:48:41;100633.53;;;19.52;61.74
48015;BME280;33780;51.034;7.120;2023-06-10T05:51:07;100635.91;;;19.55;61.60
48015;BME280;33780;51.034;7.120;2023-06-10T05:53:32;100630.75;;;19.60;61.64
48015;BME280;33780;51.034;7.120;2023-06-10T05:55:57;100635.59;;;19.65;61.51
48015;BME280;33780;51.034;7.120;2023-06-10T05:58:24;100633.13;;;19.70;61.27
48015;BME280;33780;51.034;7.120;2023-06-10T06:00:49;100627.31;;;19.73;61.58
48015;BME280;33780;51.034;7.120;2023-06-10T06:03:15;100638.44;;;19.78;61.42
48015;BME280;33780;51.034;7.120;2023-06-10T06:05:40;100631.41;;;19.84;61.51
48015;BME280;33780;51.034;7.120;2023-06-10T06:08:07;100633.53;;;19.88;61.72
48015;BME280;33780;51.034;7.120;2023-06-10T06:10:33;100635.69;;;19.93;61.43
48015;BME280;33780;51.034;7.120;2023-06-10T06:12:58;100641.38;;;19.98;61.43
48015;BME280;33780;51.034;7.120;2023-06-10T06:15:24;100640.75;;;20.03;61.44
48015;BME280;33780;51.034;7.120;2023-06-10T06:17:49;100639.34;;;20.07;61.53
48015;BME280;33780;51.034;7.120;2023-06-10T06:20:17;100636.91;;;20.12;61.46
48015;BME280;33780;51.034;7.120;2023-06-10T06:22:43;100637.97;;;20.17;61.02
48015;BME280;33780;51.034;7.120;2023-06-10T06:25:08;100639.91;;;20.23;61.20
48015;BME280;33780;51.034;7.120;2023-06-10T06:27:33;100648.28;;;20.29;60.99
48015;BME280;33780;51.034;7.120;2023-06-10T06:29:59;100639.38;;;20.35;61.15
48015;BME280;33780;51.034;7.120;2023-06-10T06:32:24;100638.78;;;20.39;60.90
48015;BME280;33780;51.034;7.120;2023-06-10T06:34:52;100631.72;;;20.45;60.96
48015;BME280;33780;51.034;7.120;2023-06-10T06:37:21;100640.16;;;20.50;61.23
48015;BME280;33780;51.034;7.120;2023-06-10T06:39:47;100640.38;;;20.55;61.11
48015;BME280;33780;51.034;7.120;2023-06-10T06:42:13;100642.28;;;20.61;61.00
48015;BME280;33780;51.034;7.120;2023-06-10T06:44:38;100635.25;;;20.67;61.21
48015;BME280;33780;51.034;7.120;2023-06-10T06:47:03;100640.06;;;20.71;60.96
48015;BME280;33780;51.034;7.120;2023-06-10T06:49:29;100639.47;;;20.76;60.74
48015;BME280;33780;51.034;7.120;2023-06-10T06:51:54;100642.25;;;20.83;60.71
48015;BME280;33780;51.034;7.120;2023-06-10T06:54:19;100646.88;;;20.89;60.89
48015;BME280;33780;51.034;7.120;2023-06-10T06:56:45;100652.34;;;20.95;60.60
48015;BME280;33780;51.034;7.120;2023-06-10T06:59:10;100648.00;;;21.01;60.88
48015;BME280;33780;51.034;7.120;2023-06-10T07:01:36;100645.28;;;21.07;60.78
48015;BME280;33780;51.034;7.120;2023-06-10T07:04:01;100643.44;;;21.15;60.64
48015;BME280;33780;51.034;7.120;2023-06-10T07:06:26;100637.84;;;21.23;60.53
48015;BME280;33780;51.034;7.120;2023-06-10T07:08:51;100637.88;;;21.29;59.95
48015;BME280;33780;51.034;7.120;2023-06-10T07:11:17;100640.63;;;21.36;60.09
48015;BME280;33780;51.034;7.120;2023-06-10T07:13:43;100635.22;;;21.42;59.52
48015;BME280;33780;51.034;7.120;2023-06-10T07:16:08;100648.41;;;21.52;59.75
48015;BME280;33780;51.034;7.120;2023-06-10T07:18:33;100641.97;;;21.60;59.41
48015;BME280;33780;51.034;7.120;2023-06-10T07:20:58;100642.81;;;21.67;58.33
48015;BME280;33780;51.034;7.120;2023-06-10T07:23:23;100639.28;;;21.73;57.82
48015;BME280;33780;51.034;7.120;2023-06-10T07:25:49;100647.25;;;21.81;58.16
48015;BME280;33780;51.034;7.120;2023-06-10T07:28:14;100639.91;;;21.88;57.43
48015;BME280;33780;51.034;7.120;2023-06-10T07:30:39;100633.44;;;21.96;56.58
48015;BME280;33780;51.034;7.120;2023-06-10T07:33:05;100636.16;;;22.02;56.73
48015;BME280;33780;51.034;7.120;2023-06-10T07:35:32;100637.22;;;22.08;56.25
48015;BME280;33780;51.034;7.120;2023-06-10T07:37:58;100636.19;;;22.16;55.94
48015;BME280;33780;51.034;7.120;2023-06-10T07:40:23;100635.34;;;22.22;55.54
48015;BME280;33780;51.034;7.120;2023-06-10T07:42:49;100637.03;;;22.29;55.13
48015;BME280;33780;51.034;7.120;2023-06-10T07:45:14;100632.63;;;22.35;55.03
48015;BME280;33780;51.034;7.120;2023-06-10T07:47:39;100629.88;;;22.42;54.51
48015;BME280;33780;51.034;7.120;2023-06-10T07:50:05;100623.81;;;22.46;54.57
48015;BME280;33780;51.034;7.120;2023-06-10T07:52:30;100627.38;;;22.53;54.60
48015;BME280;33780;51.034;7.120;2023-06-10T07:54:56;100625.66;;;22.59;54.79
48015;BME280;33780;51.034;7.120;2023-06-10T07:57:21;100631.34;;;22.64;54.09
48015;BME280;33780;51.034;7.120;2023-06-10T07:59:46;100634.06;;;22.71;54.24
48015;BME280;33780;51.034;7.120;2023-06-10T08:02:12;100623.31;;;22.76;53.78
48015;BME280;33780;51.034;7.120;2023-06-10T08:04:37;100629.44;;;22.84;53.56
48015;BME280;33780;51.034;7.120;2023-06-10T08:07:02;100634.03;;;22.90;53.16
48015;BME280;33780;51.034;7.120;2023-06-10T08:09:28;100634.22;;;22.96;53.49
48015;BME280;33780;51.034;7.120;2023-06-10T08:11:53;100629.59;;;23.03;52.87
48015;BME280;33780;51.034;7.120;2023-06-10T08:14:20;100633.34;;;23.08;52.79
48015;BME280;33780;51.034;7.120;2023-06-10T08:16:46;100635.41;;;23.13;50.76
48015;BME280;33780;51.034;7.120;2023-06-10T08:19:11;100632.84;;;23.25;51.55
48015;BME280;33780;51.034;7.120;2023-06-10T08:21:36;100632.81;;;23.31;51.23
48015;BME280;33780;51.034;7.120;2023-06-10T08:24:06;100640.38;;;23.36;51.77
48015;BME280;33780;51.034;7.120;2023-06-10T08:26:31;100634.25;;;23.40;50.67
48015;BME280;33780;51.034;7.120;2023-06-10T08:28:57;100632.94;;;23.49;51.69
48015;BME280;33780;51.034;7.120;2023-06-10T08:31:22;100635.47;;;23.58;51.43
48015;BME280;33780;51.034;7.120;2023-06-10T08:33:50;100631.00;;;23.63;51.24
48015;BME280;33780;51.034;7.120;2023-06-10T08:36:16;100632.00;;;23.69;51.15
48015;BME280;33780;51.034;7.120;2023-06-10T08:38:41;100629.47;;;23.74;51.06
48015;BME280;33780;51.034;7.120;2023-06-10T08:41:07;100630.47;;;23.79;51.04
48015;BME280;33780;51.034;7.120;2023-06-10T08:43:48;100629.59;;;23.86;50.99
48015;BME280;33780;51.034;7.120;2023-06-10T08:46:16;100622.41;;;23.91;50.50
48015;BME280;33780;51.034;7.120;2023-06-10T08:48:46;100627.00;;;23.97;50.74
48015;BME280;33780;51.034;7.120;2023-06-10T08:51:15;100627.75;;;24.04;50.93
48015;BME280;33780;51.034;7.120;2023-06-10T08:53:50;100632.13;;;24.12;50.50
48015;BME280;33780;51.034;7.120;2023-06-10T08:56:18;100623.03;;;24.18;50.01
48015;BME280;33780;51.034;7.120;2023-06-10T08:58:44;100618.59;;;24.24;49.47
48015;BME280;33780;51.034;7.120;2023-06-10T09:01:11;100620.44;;;24.30;49.66
48015;BME280;33780;51.034;7.120;2023-06-10T09:03:37;100617.66;;;24.36;49.62
48015;BME280;33780;51.034;7.120;2023-06-10T09:06:04;100609.59;;;24.41;50.03
48015;BME280;33780;51.034;7.120;2023-06-10T09:08:33;100615.84;;;24.49;49.85
48015;BME280;33780;51.034;7.120;2023-06-10T09:10:59;100617.91;;;24.53;50.13
48015;BME280;33780;51.034;7.120;2023-06-10T09:13:25;100621.44;;;24.60;50.13
48015;BME280;33780;51.034;7.120;2023-06-10T09:15:50;100622.41;;;24.66;49.75
48015;BME280;33780;51.034;7.120;2023-06-10T09:18:16;100612.44;;;24.71;48.99
48015;BME280;33780;51.034;7.120;2023-06-10T09:20:43;100621.44;;;24.79;49.53
48015;BME280;33780;51.034;7.120;2023-06-10T09:23:09;100615.06;;;24.85;48.93
48015;BME280;33780;51.034;7.120;2023-06-10T09:25:36;100615.19;;;24.90;48.10
48015;BME280;33780;51.034;7.120;2023-06-10T09:28:02;100605.84;;;24.97;48.37
48015;BME280;33780;51.034;7.120;2023-06-10T09:30:33;100604.72;;;25.05;48.69
48015;BME280;33780;51.034;7.120;2023-06-10T09:33:02;100610.09;;;25.12;47.78
48015;BME280;33780;51.034;7.120;2023-06-10T09:35:29;100611.13;;;25.17;46.38
48015;BME280;33780;51.034;7.120;2023-06-10T09:37:56;100612.22;;;25.28;46.16
48015;BME280;33780;51.034;7.120;2023-06-10T09:40:21;100608.94;;;25.38;45.97
48015;BME280;33780;51.034;7.120;2023-06-10T09:42:53;100613.25;;;25.45;46.14
48015;BME280;33780;51.034;7.120;2023-06-10T09:45:20;100612.09;;;25.53;46.49
48015;BME280;33780;51.034;7.120;2023-06-10T09:47:47;100603.53;;;25.61;45.76
48015;BME280;33780;51.034;7.120;2023-06-10T09:50:12;100602.44;;;25.69;45.07
48015;BME280;33780;51.034;7.120;2023-06-10T09:52:38;100609.22;;;25.78;45.51
48015;BME280;33780;51.034;7.120;2023-06-10T09:55:07;100598.31;;;25.89;45.27
48015;BME280;33780;51.034;7.120;2023-06-10T09:57:33;100598.53;;;26.00;44.79
48015;BME280;33780;51.034;7.120;2023-06-10T10:00:07;100601.78;;;26.08;44.01
48015;BME280;33780;51.034;7.120;2023-06-10T10:02:44;100595.69;;;26.18;44.06
48015;BME280;33780;51.034;7.120;2023-06-10T10:05:09;100597.50;;;26.24;43.05
48015;BME280;33780;51.034;7.120;2023-06-10T10:07:35;100589.75;;;26.33;43.82
48015;BME280;33780;51.034;7.120;2023-06-10T10:10:00;100599.94;;;26.44;44.26
48015;BME280;33780;51.034;7.120;2023-06-10T10:12:25;100598.25;;;26.55;42.80
48015;BME280;33780;51.034;7.120;2023-06-10T10:14:51;100593.47;;;26.62;41.39
48015;BME280;33780;51.034;7.120;2023-06-10T10:17:20;100595.97;;;26.63;41.42
48015;BME280;33780;51.034;7.120;2023-06-10T10:20:04;100588.47;;;26.59;41.77
48015;BME280;33780;51.034;7.120;2023-06-10T10:22:38;100591.56;;;26.62;40.52
48015;BME280;33780;51.034;7.120;2023-06-10T10:25:28;100595.34;;;26.73;40.88
48015;BME280;33780;51.034;7.120;2023-06-10T10:27:58;100592.84;;;26.83;40.74
48015;BME280;33780;51.034;7.120;2023-06-10T10:30:28;100587.69;;;26.87;39.69
48015;BME280;33780;51.034;7.120;2023-06-10T10:35:24;100592.22;;;27.04;38.30
48015;BME280;33780;51.034;7.120;2023-06-10T10:37:52;100590.66;;;27.08;37.45
48015;BME280;33780;51.034;7.120;2023-06-10T10:40:19;100595.56;;;27.06;38.92
48015;BME280;33780;51.034;7.120;2023-06-10T10:42:47;100587.56;;;27.05;37.01
48015;BME280;33780;51.034;7.120;2023-06-10T10:45:13;100586.22;;;27.07;38.22
48015;BME280;33780;51.034;7.120;2023-06-10T10:47:38;100581.72;;;27.01;37.97
48015;BME280;33780;51.034;7.120;2023-06-10T10:50:25;100581.97;;;27.00;38.98
48015;BME280;33780;51.034;7.120;2023-06-10T10:55:22;100594.75;;;26.94;38.92
48015;BME280;33780;51.034;7.120;2023-06-10T10:58:04;100593.06;;;26.93;39.10
48015;BME280;33780;51.034;7.120;2023-06-10T11:00:31;100591.38;;;26.92;39.99
48015;BME280;33780;51.034;7.120;2023-06-10T11:03:05;100589.72;;;26.91;40.00
48015;BME280;33780;51.034;7.120;2023-06-10T11:05:36;100585.28;;;26.90;40.45
48015;BME280;33780;51.034;7.120;2023-06-10T11:08:03;100581.47;;;26.91;40.71
48015;BME280;33780;51.034;7.120;2023-06-10T11:10:30;100580.88;;;26.89;40.17
48015;BME280;33780;51.034;7.120;2023-06-10T11:12:56;100583.88;;;26.88;40.35
48015;BME280;33780;51.034;7.120;2023-06-10T11:15:29;100586.88;;;26.86;40.54
48015;BME280;33780;51.034;7.120;2023-06-10T11:21:04;100577.09;;;26.78;40.76
48015;BME280;33780;51.034;7.120;2023-06-10T11:31:27;100579.47;;;26.75;42.71
48015;BME280;33780;51.034;7.120;2023-06-10T11:33:54;100580.34;;;26.75;43.18
48015;BME280;33780;51.034;7.120;2023-06-10T11:36:21;100576.50;;;26.76;44.07
48015;BME280;33780;51.034;7.120;2023-06-10T11:38:46;100578.19;;;26.77;44.25
48015;BME280;33780;51.034;7.120;2023-06-10T11:41:12;100573.53;;;26.78;44.56
48015;BME280;33780;51.034;7.120;2023-06-10T11:43:44;100574.94;;;26.80;45.47
48015;BME280;33780;51.034;7.120;2023-06-10T11:46:11;100572.28;;;26.86;45.72
48015;BME280;33780;51.034;7.120;2023-06-10T11:48:36;100569.19;;;26.94;43.87
48015;BME280;33780;51.034;7.120;2023-06-10T11:51:08;100564.28;;;26.96;43.81
48015;BME280;33780;51.034;7.120;2023-06-10T11:53:34;100565.50;;;27.00;44.35
48015;BME280;33780;51.034;7.120;2023-06-10T11:56:00;100557.44;;;27.10;44.71
48015;BME280;33780;51.034;7.120;2023-06-10T11:58:25;100556.06;;;27.24;44.27
48015;BME280;33780;51.034;7.120;2023-06-10T12:00:52;100567.34;;;27.39;44.31
48015;BME280;33780;51.034;7.120;2023-06-10T12:03:19;100560.47;;;27.54;42.49
48015;BME280;33780;51.034;7.120;2023-06-10T12:06:02;100549.28;;;27.72;43.08
48015;BME280;33780;51.034;7.120;2023-06-10T12:08:27;100539.06;;;27.84;41.28
48015;BME280;33780;51.034;7.120;2023-06-10T12:10:53;100544.69;;;27.94;41.32
48015;BME280;33780;51.034;7.120;2023-06-10T12:13:19;100540.09;;;28.00;38.98
48015;BME280;33780;51.034;7.120;2023-06-10T12:15:45;100545.00;;;28.15;39.49
48015;BME280;33780;51.034;7.120;2023-06-10T12:18:23;100540.53;;;28.25;38.27
48015;BME280;33780;51.034;7.120;2023-06-10T12:20:48;100533.84;;;28.38;36.86
48015;BME280;33780;51.034;7.120;2023-06-10T12:23:16;100525.97;;;28.47;38.10
48015;BME280;33780;51.034;7.120;2023-06-10T12:25:53;100533.16;;;28.48;35.63
48015;BME280;33780;51.034;7.120;2023-06-10T12:28:26;100526.97;;;28.57;36.97
48015;BME280;33780;51.034;7.120;2023-06-10T12:31:06;100525.59;;;28.60;36.00
48015;BME280;33780;51.034;7.120;2023-06-10T12:33:31;100521.94;;;28.54;36.88
48015;BME280;33780;51.034;7.120;2023-06-10T12:35:56;100517.47;;;28.48;37.43
48015;BME280;33780;51.034;7.120;2023-06-10T12:38:23;100527.25;;;28.39;36.82
48015;BME280;33780;51.034;7.120;2023-06-10T12:40:49;100531.78;;;28.28;37.74
48015;BME280;33780;51.034;7.120;2023-06-10T12:43:22;100525.84;;;28.20;37.73
48015;BME280;33780;51.034;7.120;2023-06-10T12:45:49;100534.78;;;28.10;37.96
48015;BME280;33780;51.034;7.120;2023-06-10T12:48:19;100533.09;;;28.09;38.54
48015;BME280;33780;51.034;7.120;2023-06-10T12:50:50;100530.09;;;28.11;37.78
48015;BME280;33780;51.034;7.120;2023-06-10T12:53:16;100528.59;;;28.20;37.29
48015;BME280;33780;51.034;7.120;2023-06-10T12:55:41;100514.44;;;28.28;37.89
48015;BME280;33780;51.034;7.120;2023-06-10T12:58:06;100516.81;;;28.41;37.59
48015;BME280;33780;51.034;7.120;2023-06-10T13:00:32;100513.09;;;28.52;37.62
48015;BME280;33780;51.034;7.120;2023-06-10T13:03:00;100518.81;;;28.68;37.68
48015;BME280;33780;51.034;7.120;2023-06-10T13:05:27;100513.75;;;28.81;37.52